Time;durP1;ratioP1;P1;durP2;ratioP2;P2;SDS_P1;SDS_P2;PMS_P1;PMS_P2;Temp;Humidity;BMP_temperature;BMP_pressure;BME280_temperature;BME280_humidity;BME280_pressure;Samples;Min_cycle;Max_cycle;Signal;HPM_P1;HPM_P2
2022/09/08 00:01:10;;;;;;;16.42;6.38;;;23.20;99.90;;;;;;5011105;28;20048;-68
2022/09/08 00:04:14;;;;;;;15.15;7.03;;;23.20;99.90;;;;;;5010184;28;20385;-68
2022/09/08 00:07:18;;;;;;;19.38;6.57;;;23.10;99.90;;;;;;5010993;28;20045;-68
2022/09/08 00:10:41;;;;;;;14.25;6.25;;;23.20;99.90;;;;;;5011345;28;20049;-68
2022/09/08 00:13:46;;;;;;;17.35;6.50;;;23.10;99.90;;;;;;5010006;28;20041;-68
2022/09/08 00:16:50;;;;;;;16.77;7.03;;;23.10;99.90;;;;;;5010956;28;20056;-68
2022/09/08 00:20:13;;;;;;;15.38;6.30;;;23.20;99.90;;;;;;5010548;28;20508;-68
2022/09/08 00:23:17;;;;;;;23.83;6.85;;;23.30;99.90;;;;;;5010227;28;20500;-68
2022/09/08 00:26:21;;;;;;;17.73;7.30;;;23.50;99.90;;;;;;5011466;28;20053;-68
2022/09/08 00:29:44;;;;;;;23.27;7.65;;;23.60;99.90;;;;;;5009527;28;20048;-68
2022/09/08 00:32:48;;;;;;;20.88;7.38;;;23.60;99.90;;;;;;5010637;28;20408;-68
2022/09/08 00:35:52;;;;;;;14.30;6.70;;;22.80;99.90;;;;;;5010376;28;20082;-68
2022/09/08 00:38:58;;;;;;;14.10;6.70;;;22.60;99.90;;;;;;5010064;28;20048;-68
2022/09/08 00:42:03;;;;;;;14.43;7.38;;;22.80;99.90;;;;;;5010841;28;20049;-68
2022/09/08 00:45:10;;;;;;;19.08;6.93;;;22.90;99.90;;;;;;5009949;28;20041;-69
2022/09/08 00:48:16;;;;;;;20.25;7.20;;;23.00;99.90;;;;;;5010682;28;20041;-68
2022/09/08 00:51:22;;;;;;;15.52;6.15;;;23.10;99.90;;;;;;5010415;28;20392;-68
2022/09/08 00:54:26;;;;;;;16.35;7.15;;;23.00;99.90;;;;;;5009587;28;20049;-68
2022/09/08 00:57:49;;;;;;;15.00;6.10;;;23.00;99.90;;;;;;5010198;28;20040;-68
2022/09/08 01:00:54;;;;;;;16.20;6.10;;;22.80;99.90;;;;;;5009536;28;20400;-68
2022/09/08 01:03:58;;;;;;;20.48;6.38;;;22.60;99.90;;;;;;5009886;28;20519;-67
2022/09/08 01:14:52;;;;;;;24.50;7.53;;;22.50;99.90;;;;;;5003609;28;20121;-68
2022/09/08 01:17:56;;;;;;;15.25;7.20;;;22.50;99.90;;;;;;5009775;28;20073;-68
2022/09/08 01:21:13;;;;;;;19.17;7.53;;;22.50;99.90;;;;;;5009795;28;20044;-68
2022/09/08 01:28:33;;;;;;;14.32;6.60;;;22.40;99.90;;;;;;5013616;28;20048;-68
2022/09/08 01:31:42;;;;;;;19.50;7.40;;;22.40;99.90;;;;;;5013842;28;20496;-68
2022/09/08 01:35:06;;;;;;;15.05;7.10;;;22.40;99.90;;;;;;5012932;28;20041;-68
2022/09/08 01:38:11;;;;;;;19.17;7.30;;;22.20;99.90;;;;;;5013331;28;20037;-68
2022/09/08 01:41:52;;;;;;;14.40;6.75;;;22.20;99.90;;;;;;5013443;28;20145;-68
2022/09/08 01:44:56;;;;;;;17.60;6.90;;;22.10;99.90;;;;;;5013169;28;20048;-68
2022/09/08 01:48:00;;;;;;;11.68;6.57;;;22.20;99.90;;;;;;5013474;28;20267;-68
2022/09/08 01:51:06;;;;;;;17.35;7.03;;;22.10;99.90;;;;;;5013810;28;20586;-68
2022/09/08 01:54:29;;;;;;;15.80;7.45;;;22.00;99.90;;;;;;5012877;28;20053;-68
2022/09/08 01:57:33;;;;;;;17.23;8.02;;;22.00;99.90;;;;;;5013600;28;20052;-68
2022/09/08 02:00:41;;;;;;;17.98;7.40;;;22.00;99.90;;;;;;5012912;28;20049;-68
2022/09/08 02:03:44;;;;;;;19.25;7.13;;;21.80;99.90;;;;;;5012661;28;20385;-68
2022/09/08 02:06:48;;;;;;;14.20;6.80;;;21.80;99.90;;;;;;5013382;28;20493;-68
2022/09/08 02:09:53;;;;;;;24.00;8.68;;;21.90;99.90;;;;;;5012947;28;20041;-68
2022/09/08 02:12:57;;;;;;;19.50;8.45;;;21.90;99.90;;;;;;5013397;28;20048;-68
2022/09/08 02:16:06;;;;;;;24.80;9.10;;;21.80;99.90;;;;;;5012857;28;20049;-68
2022/09/08 02:19:11;;;;;;;20.30;8.00;;;21.90;99.90;;;;;;5012792;28;20045;-68
2022/09/08 02:22:16;;;;;;;18.35;8.55;;;21.90;99.90;;;;;;5013116;28;20508;-68
2022/09/08 02:25:39;;;;;;;13.73;7.35;;;21.90;99.90;;;;;;5011997;28;20045;-68
2022/09/08 02:28:43;;;;;;;20.05;7.82;;;22.00;99.90;;;;;;5012382;28;20049;-68
2022/09/08 02:31:47;;;;;;;22.20;8.38;;;22.00;99.90;;;;;;5012355;28;20045;-68
2022/09/08 02:34:52;;;;;;;16.67;7.25;;;22.10;99.90;;;;;;5012213;28;20347;-68
2022/09/08 02:38:14;;;;;;;26.23;7.90;;;22.20;99.90;;;;;;5011494;28;20045;-68
2022/09/08 02:41:20;;;;;;;18.05;8.38;;;22.20;99.90;;;;;;5011884;28;20045;-68
2022/09/08 02:44:24;;;;;;;22.20;8.15;;;22.10;99.90;;;;;;5012195;28;20396;-68
2022/09/08 02:47:46;;;;;;;19.20;7.53;;;22.00;99.90;;;;;;5012200;28;20045;-68
2022/09/08 02:50:50;;;;;;;18.25;8.45;;;21.80;99.90;;;;;;5011786;28;20061;-68
2022/09/08 02:53:55;;;;;;;18.67;8.90;;;21.70;99.90;;;;;;5012196;28;20052;-68
2022/09/08 02:56:59;;;;;;;22.90;9.20;;;21.70;99.90;;;;;;5011837;28;20053;-69
2022/09/08 03:00:22;;;;;;;21.63;8.98;;;21.80;99.90;;;;;;5011739;28;20049;-67
2022/09/08 03:03:46;;;;;;;19.83;9.68;;;21.80;99.90;;;;;;5011672;28;20499;-68
2022/09/08 03:07:08;;;;;;;23.40;10.60;;;21.80;99.90;;;;;;5011688;28;20064;-67
2022/09/08 03:10:12;;;;;;;26.75;11.85;;;21.80;99.90;;;;;;5012215;28;20212;-67
2022/09/08 03:13:35;;;;;;;24.60;12.85;;;21.90;99.90;;;;;;5011352;28;20049;-68
2022/09/08 03:16:40;;;;;;;27.13;12.30;;;22.00;99.90;;;;;;5011806;28;20064;-68
2022/09/08 03:19:44;;;;;;;23.08;13.23;;;22.10;99.90;;;;;;5012153;28;20057;-68
2022/09/08 03:22:49;;;;;;;26.00;13.45;;;22.20;99.90;;;;;;5011371;28;20041;-68
2022/09/08 03:25:53;;;;;;;29.60;12.93;;;22.30;99.90;;;;;;5011727;28;20526;-68
2022/09/08 03:29:16;;;;;;;28.23;12.55;;;22.30;99.90;;;;;;5011399;28;20061;-68
2022/09/08 03:32:20;;;;;;;27.73;13.00;;;22.40;99.90;;;;;;5011460;28;20059;-68
2022/09/08 03:35:24;;;;;;;25.73;11.77;;;22.50;99.90;;;;;;5011413;28;20389;-68
2022/09/08 03:38:29;;;;;;;24.85;11.35;;;22.50;99.90;;;;;;5021691;28;20084;-68
2022/09/08 03:41:33;;;;;;;33.72;12.82;;;22.60;99.90;;;;;;5011386;28;20507;-68
2022/09/08 03:44:37;;;;;;;30.15;11.82;;;22.50;99.90;;;;;;5011068;28;20180;-68
2022/09/08 03:47:42;;;;;;;29.95;12.68;;;22.50;99.90;;;;;;5010820;28;20041;-68
2022/09/08 03:57:32;;;;;;;27.35;11.25;;;22.60;99.90;;;;;;5011312;28;20056;-68
2022/09/08 04:00:41;;;;;;;28.50;11.45;;;22.70;99.90;;;;;;5010809;28;20045;-68
2022/09/08 04:03:45;;;;;;;30.80;11.75;;;22.70;99.90;;;;;;5010882;28;20400;-68
2022/09/08 04:06:50;;;;;;;25.90;10.68;;;22.80;99.90;;;;;;5011489;28;20499;-68
2022/09/08 04:09:54;;;;;;;27.80;12.45;;;22.80;99.90;;;;;;5010530;28;20041;-68
2022/09/08 04:12:58;;;;;;;30.90;11.10;;;22.60;99.90;;;;;;5011030;28;20044;-68
2022/09/08 04:16:03;;;;;;;24.45;11.80;;;22.60;99.90;;;;;;5010699;28;20065;-68
2022/09/08 04:19:08;;;;;;;23.33;11.15;;;22.50;99.90;;;;;;5010918;28;20060;-68
2022/09/08 04:22:30;;;;;;;30.92;10.70;;;22.50;99.90;;;;;;5009760;28;20057;-68
2022/09/08 04:25:34;;;;;;;19.70;10.25;;;22.60;99.90;;;;;;5009954;28;20049;-68
2022/09/08 04:28:39;;;;;;;16.60;10.07;;;22.60;99.90;;;;;;5010467;28;20053;-68
2022/09/08 04:31:44;;;;;;;33.50;12.88;;;22.70;99.90;;;;;;5010176;28;20049;-68
2022/09/08 04:35:07;;;;;;;17.63;10.05;;;22.60;99.90;;;;;;5010697;28;20049;-68
2022/09/08 04:38:30;;;;;;;29.80;11.68;;;22.70;99.90;;;;;;5011001;28;20499;-68
2022/09/08 04:41:33;;;;;;;29.33;12.32;;;22.60;99.90;;;;;;5010458;28;20044;-68
2022/09/08 04:44:37;;;;;;;25.17;11.73;;;22.40;99.90;;;;;;5011076;28;20049;-67
2022/09/08 04:48:00;;;;;;;30.15;14.15;;;22.20;99.90;;;;;;5010911;28;20049;-68
2022/09/08 04:51:24;;;;;;;29.00;13.32;;;22.10;99.90;;;;;;5010863;28;20049;-67
2022/09/08 04:54:28;;;;;;;27.45;11.82;;;22.20;99.90;;;;;;5010783;28;20041;-67
2022/09/08 04:57:32;;;;;;;21.20;12.18;;;22.30;99.90;;;;;;5010796;28;20057;-67
2022/09/08 05:00:37;;;;;;;28.17;14.02;;;22.30;99.90;;;;;;5012849;28;20053;-68
2022/09/08 05:03:41;;;;;;;31.65;15.02;;;22.00;99.90;;;;;;5014527;28;20045;-68
2022/09/08 05:06:46;;;;;;;27.38;13.75;;;21.90;99.90;;;;;;5015471;28;20369;-68
2022/09/08 05:09:50;;;;;;;27.40;14.02;;;21.90;99.90;;;;;;5014994;28;20049;-67
2022/09/08 05:13:13;;;;;;;33.10;14.55;;;21.90;99.90;;;;;;5014535;28;20053;-66
2022/09/08 05:16:23;;;;;;;30.98;12.45;;;21.90;99.90;;;;;;5014652;28;20048;-68
2022/09/08 05:19:45;;;;;;;29.52;13.70;;;21.90;99.90;;;;;;5014880;28;20053;-67
2022/09/08 05:22:50;;;;;;;29.95;14.18;;;21.90;99.90;;;;;;5014291;28;20057;-67
2022/09/08 05:26:01;;;;;;;30.42;14.23;;;21.90;99.90;;;;;;5014319;28;20408;-69
2022/09/08 05:32:27;;;;;;;36.63;16.35;;;21.90;99.90;;;;;;5013655;28;20103;-69
2022/09/08 05:35:35;;;;;;;29.77;16.08;;;21.80;99.90;;;;;;5013357;28;20064;-69
2022/09/08 05:38:40;;;;;;;44.88;17.42;;;21.80;99.90;;;;;;5013748;28;20049;-68
2022/09/08 05:41:44;;;;;;;33.08;15.30;;;21.90;99.90;;;;;;5013449;28;20049;-68
2022/09/08 05:45:06;;;;;;;30.00;14.30;;;21.90;99.90;;;;;;5012977;28;20512;-69
2022/09/08 05:48:11;;;;;;;28.42;14.98;;;21.90;99.90;;;;;;5013553;28;20410;-68
2022/09/08 05:54:58;;;;;;;28.80;14.90;;;21.80;99.90;;;;;;5012705;28;20049;-67
2022/09/08 05:58:21;;;;;;;30.90;15.25;;;21.90;99.90;;;;;;5013493;28;20049;-68
2022/09/08 06:04:49;;;;;;;29.58;12.10;;;21.80;99.90;;;;;;5018036;28;20368;-67
2022/09/08 06:08:31;;;;;;;35.63;12.50;;;21.90;99.90;;;;;;5023333;28;20518;-68
2022/09/08 06:11:35;;;;;;;25.58;11.63;;;21.90;99.90;;;;;;5025377;28;20239;-67
2022/09/08 06:14:39;;;;;;;25.23;10.70;;;22.00;99.90;;;;;;5025559;28;20115;-69
2022/09/08 06:17:43;;;;;;;34.60;13.23;;;22.10;99.90;;;;;;5024104;28;20049;-68
2022/09/08 06:20:47;;;;;;;29.75;11.95;;;22.10;99.90;;;;;;5019623;28;20053;-69
2022/09/08 06:23:55;;;;;;;28.30;11.18;;;22.20;99.90;;;;;;5019956;28;20488;-68
2022/09/08 06:27:24;;;;;;;26.30;11.50;;;22.30;99.90;;;;;;5022571;28;20061;-69
2022/09/08 06:30:28;;;;;;;33.47;12.85;;;22.30;99.90;;;;;;5021286;28;20040;-69
2022/09/08 06:33:39;;;;;;;26.67;12.43;;;22.30;99.90;;;;;;5020903;28;20408;-68
2022/09/08 06:36:51;;;;;;;31.27;12.95;;;22.30;99.90;;;;;;5021669;28;20049;-69
2022/09/08 06:40:03;;;;;;;35.33;12.50;;;22.30;99.90;;;;;;5025531;28;20052;-68
2022/09/08 06:43:28;;;;;;;23.63;11.07;;;22.30;99.90;;;;;;5026329;28;20053;-67
2022/09/08 06:46:35;;;;;;;21.95;7.93;;;22.20;99.90;;;;;;5026920;28;20036;-67
2022/09/08 06:49:39;;;;;;;19.05;9.07;;;22.30;99.90;;;;;;5022854;28;20041;-68
2022/09/08 06:52:48;;;;;;;25.60;9.90;;;22.30;99.90;;;;;;5021447;28;20041;-68
2022/09/08 06:56:15;;;;;;;21.02;9.25;;;22.40;99.90;;;;;;5021157;28;20041;-69
2022/09/08 06:59:23;;;;;;;25.60;9.07;;;22.40;99.90;;;;;;5017509;28;20048;-68
2022/09/08 07:02:30;;;;;;;20.02;8.00;;;22.40;99.90;;;;;;5017801;28;20052;-68
2022/09/08 07:05:49;;;;;;;18.58;8.52;;;22.50;99.90;;;;;;5014791;28;20610;-68
2022/09/08 07:09:21;;;;;;;30.67;8.43;;;22.60;99.90;;;;;;5025632;28;20109;-68
2022/09/08 07:12:45;;;;;;;21.63;8.00;;;22.60;99.90;;;;;;5019575;28;20048;-69
2022/09/08 07:15:58;;;;;;;28.75;9.55;;;22.60;99.90;;;;;;5020498;28;20056;-69
2022/09/08 07:19:11;;;;;;;23.25;8.90;;;22.50;99.90;;;;;;5026431;28;20057;-69
2022/09/08 07:22:26;;;;;;;18.95;7.85;;;22.40;99.90;;;;;;5018159;28;20041;-69
2022/09/08 07:25:52;;;;;;;21.92;9.63;;;22.40;99.90;;;;;;5022811;28;20389;-69
2022/09/08 07:32:34;;;;;;;22.85;7.35;;;22.60;99.90;;;;;;5022311;28;20495;-69
2022/09/08 07:36:10;;;;;;;21.38;7.07;;;22.50;99.90;;;;;;5021396;28;20592;-68
2022/09/08 07:39:22;;;;;;;23.90;6.45;;;22.40;99.90;;;;;;5022629;28;20388;-69
2022/09/08 07:42:27;;;;;;;18.98;6.05;;;22.50;99.90;;;;;;5018018;28;20036;-69
2022/09/08 07:46:15;;;;;;;18.63;5.82;;;22.50;99.90;;;;;;5020631;28;20048;-69
2022/09/08 07:49:45;;;;;;;20.15;5.50;;;22.60;99.90;;;;;;5020336;28;20079;-69
2022/09/08 07:53:33;;;;;;;17.85;5.63;;;22.80;99.90;;;;;;5019162;28;20033;-68
2022/09/08 07:57:09;;;;;;;16.15;5.72;;;22.90;99.90;;;;;;5021251;28;20045;-67
2022/09/08 08:00:39;;;;;;;19.13;5.80;;;23.00;99.90;;;;;;5026004;28;20049;-68
2022/09/08 08:04:14;;;;;;;20.23;6.03;;;23.10;99.90;;;;;;5020352;28;20052;-68
2022/09/08 08:07:43;;;;;;;14.50;5.63;;;23.40;99.90;;;;;;5020616;28;20041;-69
2022/09/08 08:11:06;;;;;;;19.90;5.55;;;24.00;99.90;;;;;;5017530;28;20048;-68
2022/09/08 08:14:38;;;;;;;24.58;5.03;;;25.30;99.90;;;;;;5020585;28;20052;-68
2022/09/08 08:17:51;;;;;;;16.77;4.22;;;26.10;99.90;;;;;;5021779;28;20049;-67
2022/09/08 08:21:09;;;;;;;11.35;3.90;;;26.20;99.90;;;;;;5020942;28;20048;-68
2022/09/08 08:24:36;;;;;;;14.45;3.75;;;26.60;99.90;;;;;;5018624;28;20044;-68
2022/09/08 08:27:54;;;;;;;11.23;3.53;;;26.90;99.90;;;;;;5017965;28;20040;-68
2022/09/08 08:31:39;;;;;;;10.05;2.95;;;26.50;99.90;;;;;;5026732;28;20814;-67
2022/09/08 08:34:57;;;;;;;11.50;2.58;;;25.60;99.90;;;;;;5018683;28;20567;-68
2022/09/08 08:38:04;;;;;;;12.50;4.15;;;25.40;99.90;;;;;;5022614;28;20040;-69
2022/09/08 08:41:28;;;;;;;9.23;2.30;;;24.40;99.90;;;;;;5017155;28;20048;-69
2022/09/08 08:48:34;;;;;;;4.18;1.42;;;24.40;99.90;;;;;;5018853;28;20033;-69
2022/09/08 08:52:03;;;;;;;8.07;1.67;;;24.50;99.90;;;;;;5027477;28;20127;-69
2022/09/08 08:55:06;;;;;;;5.25;1.20;;;24.80;99.90;;;;;;5016454;28;20033;-67
2022/09/08 08:58:51;;;;;;;4.03;1.10;;;24.90;99.90;;;;;;5010080;28;20065;-68
2022/09/08 09:02:34;;;;;;;6.75;1.08;;;25.50;99.90;;;;;;5027855;28;20044;-68
2022/09/08 09:05:57;;;;;;;3.10;1.00;;;25.30;99.90;;;;;;5011342;28;20492;-68
2022/09/08 09:09:38;;;;;;;5.00;0.90;;;25.40;99.90;;;;;;5018368;28;20040;-69
2022/09/08 09:13:11;;;;;;;4.15;1.13;;;25.20;99.90;;;;;;5021247;28;20053;-68
2022/09/08 09:16:40;;;;;;;3.17;0.73;;;25.10;99.90;;;;;;5029834;28;20053;-68
2022/09/08 09:20:21;;;;;;;1.95;0.82;;;25.60;99.90;;;;;;5029691;28;20060;-68
2022/09/08 09:24:13;;;;;;;2.15;0.75;;;25.00;99.90;;;;;;5025408;28;20060;-68
2022/09/08 09:27:41;;;;;;;3.67;0.70;;;25.60;99.90;;;;;;5029895;28;20045;-69
2022/09/08 09:30:45;;;;;;;5.75;1.35;;;26.40;99.90;;;;;;5029703;28;20048;-68
2022/09/08 09:34:27;;;;;;;3.67;0.88;;;26.90;99.90;;;;;;5025975;28;20044;-68
2022/09/08 09:37:37;;;;;;;2.72;0.98;;;27.80;99.90;;;;;;5029727;28;20491;-68
2022/09/08 09:41:08;;;;;;;4.40;1.00;;;26.90;99.90;;;;;;5016576;28;20588;-68
2022/09/08 09:44:36;;;;;;;2.80;1.20;;;26.40;99.90;;;;;;5028597;28;20045;-69
2022/09/08 09:48:04;;;;;;;6.50;1.70;;;26.80;99.90;;;;;;5029443;28;20354;-69
2022/09/08 09:51:30;;;;;;;6.45;0.95;;;27.60;99.90;;;;;;5031756;28;20044;-69
2022/09/08 09:58:37;;;;;;;3.70;0.50;;;29.40;99.90;;;;;;5013798;28;20045;-68
2022/09/08 10:02:18;;;;;;;3.15;0.75;;;28.90;99.90;;;;;;5028301;28;20049;-68
2022/09/08 10:05:55;;;;;;;2.30;0.50;;;29.00;99.90;;;;;;5031011;28;20049;-69
2022/09/08 10:13:45;;;;;;;3.08;1.17;;;30.00;99.90;;;;;;5012958;28;20492;-69
2022/09/08 10:17:45;;;;;;;4.50;0.80;;;33.80;99.60;;;;;;5013475;28;20045;-68
2022/09/08 10:21:07;;;;;;;2.63;0.82;;;32.80;99.70;;;;;;5014261;28;20068;-67
2022/09/08 10:24:36;;;;;;;6.43;1.42;;;33.60;98.50;;;;;;5012375;28;20052;-66
2022/09/08 10:27:58;;;;;;;7.00;1.35;;;34.00;97.70;;;;;;5015531;28;20037;-68
2022/09/08 10:31:39;;;;;;;4.68;0.80;;;35.30;97.20;;;;;;5025969;28;20045;-69
2022/09/08 10:34:49;;;;;;;;;;;35.70;96.30;;;;;;5012732;28;20044;-69
2022/09/08 10:38:02;;;;;;;7.32;1.00;;;34.10;97.50;;;;;;5012320;28;19913;-67
2022/09/08 10:41:22;;;;;;;2.83;0.98;;;34.60;96.80;;;;;;5012377;28;20050;-68
2022/09/08 10:44:37;;;;;;;3.05;0.98;;;33.90;97.40;;;;;;5017773;28;20053;-68
2022/09/08 10:48:28;;;;;;;9.68;1.13;;;32.20;99.90;;;;;;5012321;28;20049;-68
2022/09/08 10:51:38;;;;;;;10.27;1.52;;;33.30;99.30;;;;;;4976689;28;20045;-68
2022/09/08 10:54:58;;;;;;;4.15;1.10;;;35.20;97.40;;;;;;5011783;28;20048;-68
2022/09/08 10:58:13;;;;;;;4.68;1.40;;;35.90;96.30;;;;;;5010806;28;20417;-68
2022/09/08 11:01:55;;;;;;;4.30;1.20;;;35.50;96.60;;;;;;5020836;28;20053;-68
2022/09/08 11:05:36;;;;;;;4.32;1.27;;;35.10;96.20;;;;;;5011749;28;20048;-68
2022/09/08 11:09:29;;;;;;;4.05;1.10;;;35.10;96.30;;;;;;5014530;28;20061;-68
2022/09/08 11:13:03;;;;;;;5.32;1.40;;;36.50;95.80;;;;;;5032038;28;20495;-68
2022/09/08 11:16:29;;;;;;;6.75;1.65;;;35.60;96.10;;;;;;5031613;28;20048;-68
2022/09/08 11:19:46;;;;;;;7.03;1.67;;;35.50;96.40;;;;;;5024229;28;20056;-68
2022/09/08 11:26:45;;;;;;;4.95;1.10;;;35.70;96.10;;;;;;5012371;28;20500;-69
2022/09/08 11:30:17;;;;;;;5.15;1.25;;;34.10;97.40;;;;;;5012249;28;20053;-71
2022/09/08 11:33:54;;;;;;;7.25;1.88;;;34.20;97.50;;;;;;5012128;28;20068;-68
2022/09/08 11:37:29;;;;;;;7.07;1.58;;;36.90;94.90;;;;;;5011421;28;20049;-69
2022/09/08 11:41:15;;;;;;;6.18;1.35;;;36.60;94.80;;;;;;5011932;28;20044;-69
2022/09/08 11:44:44;;;;;;;7.70;1.65;;;37.60;93.90;;;;;;5012044;28;20052;-68
2022/09/08 11:48:10;;;;;;;5.22;1.48;;;37.90;93.50;;;;;;5015016;28;20519;-68
2022/09/08 11:51:15;;;;;;;6.85;1.50;;;38.60;93.00;;;;;;5024648;28;20041;-69
2022/09/08 11:55:00;;;;;;;7.10;1.63;;;34.20;94.80;;;;;;5029489;28;20056;-68
2022/09/08 11:58:40;;;;;;;8.13;2.00;;;33.90;96.40;;;;;;5024069;28;20040;-68
2022/09/08 12:01:48;;;;;;;4.53;1.63;;;32.10;98.50;;;;;;5023166;28;20053;-68
2022/09/08 12:05:37;;;;;;;6.18;1.80;;;32.80;98.20;;;;;;5023277;28;20049;-69
2022/09/08 12:09:24;;;;;;;4.93;1.60;;;35.40;95.90;;;;;;5018859;28;20037;-69
2022/09/08 12:16:14;;;;;;;8.55;1.50;;;36.30;94.30;;;;;;5018514;28;20061;-69
2022/09/08 12:19:40;;;;;;;5.68;1.50;;;37.40;93.60;;;;;;5017988;28;20397;-68
2022/09/08 12:23:06;;;;;;;5.57;1.70;;;39.00;92.50;;;;;;5026676;28;20048;-67
2022/09/08 12:26:28;;;;;;;6.30;1.20;;;36.50;93.00;;;;;;5021792;28;20048;-67
2022/09/08 12:29:50;;;;;;;7.53;1.45;;;38.00;93.20;;;;;;5020587;28;20487;-68
2022/09/08 12:33:04;;;;;;;5.22;1.30;;;37.40;92.40;;;;;;5014160;28;20058;-68
2022/09/08 12:36:19;;;;;;;7.65;1.50;;;38.40;91.60;;;;;;5011092;28;20048;-68
2022/09/08 12:40:04;;;;;;;9.50;1.50;;;39.90;91.00;;;;;;5011356;28;20508;-67
2022/09/08 12:43:25;;;;;;;6.72;1.63;;;40.50;90.10;;;;;;5015123;28;20053;-68
2022/09/08 12:46:52;;;;;;;7.10;1.20;;;39.20;89.80;;;;;;5016901;28;20044;-68
2022/09/08 12:50:13;;;;;;;8.07;1.73;;;40.20;90.00;;;;;;5027928;28;20388;-68
2022/09/08 12:54:07;;;;;;;6.28;1.50;;;38.50;90.00;;;;;;5030306;28;20419;-68
2022/09/08 12:57:28;;;;;;;10.57;1.80;;;38.30;90.70;;;;;;4975382;28;20511;-68
2022/09/08 13:00:40;;;;;;;5.80;1.80;;;37.80;90.60;;;;;;5022655;28;20045;-68
2022/09/08 13:03:46;;;;;;;8.40;1.80;;;38.80;90.20;;;;;;5018680;28;20037;-68
2022/09/08 13:07:18;;;;;;;6.68;2.15;;;38.80;90.10;;;;;;5028145;28;20253;-68
2022/09/08 13:10:34;;;;;;;8.02;1.90;;;37.00;90.60;;;;;;5022260;28;20036;-67
2022/09/08 13:14:00;;;;;;;6.57;1.77;;;37.80;90.40;;;;;;5018588;28;20503;-69
2022/09/08 13:17:49;;;;;;;9.27;2.20;;;35.20;92.20;;;;;;5017128;28;20381;-67
2022/09/08 13:25:05;;;;;;;10.80;2.05;;;33.70;94.20;;;;;;5021921;28;20037;-68
2022/09/08 13:28:18;;;;;;;10.68;2.30;;;34.20;93.90;;;;;;5022578;28;20571;-68
2022/09/08 13:31:37;;;;;;;12.27;2.17;;;33.20;94.50;;;;;;5022560;28;20041;-68
2022/09/08 13:35:00;;;;;;;7.90;1.75;;;35.30;92.80;;;;;;5018397;28;20057;-68
2022/09/08 13:38:25;;;;;;;12.85;2.15;;;35.20;92.70;;;;;;5022569;28;20080;-67
2022/09/08 13:42:03;;;;;;;11.90;2.05;;;34.00;92.90;;;;;;5025744;28;20041;-67
2022/09/08 13:45:19;;;;;;;13.65;2.40;;;31.30;96.20;;;;;;5026987;28;20037;-68
2022/09/08 13:48:33;;;;;;;10.80;2.20;;;31.00;96.60;;;;;;5027524;28;20037;-68
2022/09/08 13:52:02;;;;;;;14.90;2.60;;;31.50;96.30;;;;;;5028142;28;20502;-69
2022/09/08 13:55:40;;;;;;;12.30;2.25;;;31.10;96.90;;;;;;5031048;28;20044;-68
2022/09/08 14:02:30;;;;;;;17.65;2.80;;;31.30;96.80;;;;;;5023113;28;20043;-68
2022/09/08 14:09:20;;;;;;;12.95;2.42;;;31.00;97.80;;;;;;5017125;28;20044;-69
2022/09/08 14:12:26;;;;;;;17.80;2.23;;;31.20;98.00;;;;;;5022062;28;20045;-68
2022/09/08 14:15:44;;;;;;;12.05;2.63;;;31.00;97.10;;;;;;5012902;28;20092;-68
2022/09/08 14:19:22;;;;;;;9.10;2.28;;;30.30;98.00;;;;;;5024030;28;20049;-69
2022/09/08 14:22:47;;;;;;;12.73;2.30;;;30.30;99.30;;;;;;5012228;28;20110;-69
2022/09/08 14:25:52;;;;;;;16.42;2.63;;;29.60;99.90;;;;;;5013146;28;20104;-69
2022/09/08 14:29:11;;;;;;;13.07;2.78;;;29.20;99.90;;;;;;5023716;28;20515;-69
2022/09/08 14:32:42;;;;;;;15.50;2.67;;;29.30;99.90;;;;;;5022103;28;20610;-69
2022/09/08 14:35:57;;;;;;;18.73;3.53;;;29.60;99.90;;;;;;5020413;28;20052;-68
2022/09/08 14:39:27;;;;;;;14.85;3.22;;;29.80;99.90;;;;;;5015414;28;20072;-69
2022/09/08 14:43:09;;;;;;;13.20;2.85;;;29.60;99.90;;;;;;5024479;28;20052;-69
2022/09/08 14:46:55;;;;;;;11.40;3.10;;;30.10;99.90;;;;;;5020364;28;20037;-69
2022/09/08 14:50:36;;;;;;;16.65;2.83;;;30.30;99.90;;;;;;5028826;28;20048;-68
2022/09/08 14:54:08;;;;;;;19.10;3.00;;;31.00;99.90;;;;;;5030625;28;20040;-68
2022/09/08 14:57:24;;;;;;;13.55;2.72;;;31.10;99.90;;;;;;5027182;28;20041;-68
2022/09/08 15:00:41;;;;;;;15.15;2.95;;;30.80;99.90;;;;;;5024623;28;20033;-68
2022/09/08 15:04:14;;;;;;;16.42;3.17;;;30.70;99.90;;;;;;5031471;28;20052;-68
2022/09/08 15:07:22;;;;;;;19.50;2.80;;;30.50;99.90;;;;;;5022138;28;20484;-68
2022/09/08 15:10:49;;;;;;;16.50;2.85;;;30.40;99.90;;;;;;5020133;28;20052;-68
2022/09/08 15:14:13;;;;;;;9.20;2.50;;;30.50;99.90;;;;;;5014913;28;20037;-69
2022/09/08 15:17:26;;;;;;;15.30;2.65;;;30.60;99.90;;;;;;4980748;28;1243586;-68
2022/09/08 15:24:29;;;;;;;13.30;3.00;;;30.40;99.90;;;;;;5021246;28;20538;-68
2022/09/08 15:27:53;;;;;;;15.10;2.58;;;30.30;99.90;;;;;;5024294;28;20044;-68
2022/09/08 15:31:27;;;;;;;19.60;3.38;;;30.40;99.90;;;;;;5011517;28;20044;-68
2022/09/08 15:35:37;;;;;;;20.00;3.20;;;30.50;99.90;;;;;;5011517;28;20064;-68
2022/09/08 15:39:26;;;;;;;20.73;3.37;;;30.60;99.90;;;;;;5011826;28;20492;-68
2022/09/08 15:42:51;;;;;;;18.15;2.90;;;30.80;99.90;;;;;;5011637;28;20295;-68
2022/09/08 15:46:07;;;;;;;14.80;2.88;;;30.90;99.90;;;;;;5011849;28;20049;-68
2022/09/08 15:49:51;;;;;;;16.70;3.50;;;30.80;99.90;;;;;;5012075;28;20037;-68
2022/09/08 15:53:31;;;;;;;13.35;3.78;;;30.70;99.90;;;;;;5011957;28;20057;-69
2022/09/08 15:56:49;;;;;;;14.75;2.85;;;30.50;99.90;;;;;;5011416;28;20440;-68
2022/09/08 16:00:13;;;;;;;15.77;3.35;;;30.10;99.90;;;;;;5012062;28;20116;-69
2022/09/08 16:03:49;;;;;;;22.10;3.15;;;29.80;99.90;;;;;;5011263;28;20508;-69
2022/09/08 16:07:32;;;;;;;18.05;2.97;;;29.60;99.90;;;;;;5011444;28;20053;-68
2022/09/08 16:11:07;;;;;;;20.77;3.05;;;29.50;99.90;;;;;;5011897;28;20397;-68
2022/09/08 16:14:24;;;;;;;12.10;2.25;;;29.40;99.90;;;;;;5010288;28;20102;-68
2022/09/08 16:17:46;;;;;;;13.02;2.63;;;29.10;99.90;;;;;;5011168;28;20499;-67
2022/09/08 16:21:18;;;;;;;9.60;2.50;;;28.90;99.90;;;;;;5011532;28;20044;-68
2022/09/08 16:28:58;;;;;;;23.10;2.60;;;28.80;99.90;;;;;;5011087;28;20048;-69
2022/09/08 16:32:18;;;;;;;17.35;3.85;;;28.90;99.90;;;;;;5001695;28;20064;-68
2022/09/08 16:35:28;;;;;;;21.13;3.55;;;28.80;99.90;;;;;;5009794;28;20491;-68
2022/09/08 16:39:00;;;;;;;19.73;2.78;;;28.70;99.90;;;;;;5010054;28;20492;-68
2022/09/08 16:42:12;;;;;;;12.02;2.95;;;28.50;99.90;;;;;;5010305;28;20057;-67
2022/09/08 16:45:32;;;;;;;17.48;3.38;;;28.40;99.90;;;;;;5009890;28;20407;-69
2022/09/08 16:52:38;;;;;;;16.35;2.92;;;27.90;99.90;;;;;;4969926;28;20054;-68
2022/09/08 16:55:56;;;;;;;21.10;3.22;;;27.70;99.90;;;;;;4971877;28;20693;-69
2022/09/08 16:59:03;;;;;;;14.13;2.80;;;27.50;99.90;;;;;;5011182;28;20056;-67
2022/09/08 17:02:45;;;;;;;14.70;2.78;;;27.30;99.90;;;;;;5011208;28;20053;-69
2022/09/08 17:05:53;;;;;;;10.73;2.75;;;27.20;99.90;;;;;;5010842;28;20396;-67
2022/09/08 17:09:24;;;;;;;14.63;3.35;;;27.00;99.90;;;;;;5010986;28;20045;-68
2022/09/08 17:12:35;;;;;;;16.02;2.90;;;26.80;99.90;;;;;;5010725;28;20069;-69
2022/09/08 17:15:58;;;;;;;19.13;3.33;;;26.80;99.90;;;;;;5010889;28;20053;-68
2022/09/08 17:19:14;;;;;;;12.70;2.47;;;26.60;99.90;;;;;;5011028;28;20045;-70
2022/09/08 17:22:48;;;;;;;17.60;4.20;;;26.50;99.90;;;;;;5010162;28;20049;-69
2022/09/08 17:25:55;;;;;;;13.00;2.75;;;26.40;99.90;;;;;;5010878;28;20037;-68
2022/09/08 17:29:18;;;;;;;13.77;3.35;;;26.30;99.90;;;;;;5011135;28;20037;-68
2022/09/08 17:33:00;;;;;;;11.23;3.10;;;26.20;99.90;;;;;;5010575;28;20504;-68
2022/09/08 17:36:28;;;;;;;17.55;3.17;;;26.10;99.90;;;;;;5010768;28;20061;-68
2022/09/08 17:39:36;;;;;;;20.52;3.97;;;26.10;99.90;;;;;;5010949;28;20049;-68
2022/09/08 17:43:09;;;;;;;17.48;3.45;;;26.00;99.90;;;;;;5010275;28;20045;-68
2022/09/08 17:46:42;;;;;;;17.48;3.40;;;25.90;99.90;;;;;;5010739;28;20053;-69
2022/09/08 17:50:23;;;;;;;17.50;3.92;;;25.90;99.90;;;;;;5010885;28;20496;-69
2022/09/08 18:01:12;;;;;;;16.13;4.03;;;25.20;99.90;;;;;;5009981;28;20272;-69
2022/09/08 18:04:16;;;;;;;26.50;4.43;;;25.10;99.90;;;;;;5010248;28;20045;-68
2022/09/08 18:07:21;;;;;;;15.10;4.05;;;25.10;99.90;;;;;;5012094;28;20064;-69
2022/09/08 18:10:47;;;;;;;12.63;3.38;;;25.10;99.90;;;;;;5014212;28;20045;-68
2022/09/08 18:17:30;;;;;;;19.27;4.03;;;25.20;99.90;;;;;;5013933;28;20125;-68
2022/09/08 18:20:34;;;;;;;11.43;3.25;;;25.20;99.90;;;;;;5013348;28;20039;-68
2022/09/08 18:23:39;;;;;;;12.40;3.20;;;25.30;99.90;;;;;;5013354;28;20049;-68
2022/09/08 18:27:20;;;;;;;17.98;3.70;;;25.30;99.90;;;;;;5013577;28;20041;-69
2022/09/08 18:30:44;;;;;;;19.63;4.13;;;25.40;99.90;;;;;;5013280;28;20044;-68